sensor_id;sensor_type;location;lat;lon;timestamp;pressure;altitude;pressure_sealevel;temperature;humidity
43621;BME280;29213;50.770;7.298;2023-01-29T00:01:27;102340.28;;;-3.26;56.86
43621;BME280;29213;50.770;7.298;2023-01-29T00:03:52;102338.50;;;-3.24;57.02
43621;BME280;29213;50.770;7.298;2023-01-29T00:06:18;102250.97;;;-3.79;56.78
43621;BME280;29213;50.770;7.298;2023-01-29T00:08:43;102115.47;;;-4.67;56.63
43621;BME280;29213;50.770;7.298;2023-01-29T00:11:09;102291.63;;;-3.73;56.78
43621;BME280;29213;50.770;7.298;2023-01-29T00:13:35;102235.72;;;-3.99;56.79
43621;BME280;29213;50.770;7.298;2023-01-29T00:16:01;102327.53;;;-3.40;57.06
43621;BME280;29213;50.770;7.298;2023-01-29T00:18:27;102308.66;;;-3.53;56.90
43621;BME280;29213;50.770;7.298;2023-01-29T00:20:53;102295.00;;;-3.66;56.93
43621;BME280;29213;50.770;7.298;2023-01-29T00:23:19;102210.97;;;-4.22;57.08
43621;BME280;29213;50.770;7.298;2023-01-29T00:25:44;102234.78;;;-3.96;57.45
43621;BME280;29213;50.770;7.298;2023-01-29T00:28:11;102317.25;;;-3.48;56.90
43621;BME280;29213;50.770;7.298;2023-01-29T00:30:37;102320.69;;;-3.48;56.96
43621;BME280;29213;50.770;7.298;2023-01-29T00:33:03;102319.13;;;-3.56;57.45
43621;BME280;29213;50.770;7.298;2023-01-29T00:35:30;102301.75;;;-3.56;57.39
43621;BME280;29213;50.770;7.298;2023-01-29T00:37:56;102308.63;;;-3.52;57.36
43621;BME280;29213;50.770;7.298;2023-01-29T00:40:21;102257.09;;;-3.83;57.07
43621;BME280;29213;50.770;7.298;2023-01-29T00:42:47;102290.41;;;-3.53;57.21
43621;BME280;29213;50.770;7.298;2023-01-29T00:45:32;102231.31;;;-3.95;56.85
43621;BME280;29213;50.770;7.298;2023-01-29T00:47:58;102214.34;;;-4.17;57.29
43621;BME280;29213;50.770;7.298;2023-01-29T00:50:23;102241.84;;;-4.03;57.35
43621;BME280;29213;50.770;7.298;2023-01-29T00:52:49;102288.16;;;-3.72;57.50
43621;BME280;29213;50.770;7.298;2023-01-29T00:55:16;102284.63;;;-3.69;57.54
43621;BME280;29213;50.770;7.298;2023-01-29T00:57:41;102113.81;;;-4.71;57.51
43621;BME280;29213;50.770;7.298;2023-01-29T01:00:10;102076.97;;;-4.97;57.40
43621;BME280;29213;50.770;7.298;2023-01-29T01:02:36;102255.50;;;-3.89;57.65
43621;BME280;29213;50.770;7.298;2023-01-29T01:05:20;102269.16;;;-3.77;57.39
43621;BME280;29213;50.770;7.298;2023-01-29T01:07:51;102207.25;;;-4.10;57.70
43621;BME280;29213;50.770;7.298;2023-01-29T01:10:20;102178.03;;;-4.24;57.54
43621;BME280;29213;50.770;7.298;2023-01-29T01:12:54;102274.94;;;-3.63;57.69
43621;BME280;29213;50.770;7.298;2023-01-29T01:15:22;102227.72;;;-3.90;57.58
43621;BME280;29213;50.770;7.298;2023-01-29T01:17:54;102276.66;;;-3.62;57.40
43621;BME280;29213;50.770;7.298;2023-01-29T01:20:20;102232.13;;;-3.95;57.35
43621;BME280;29213;50.770;7.298;2023-01-29T01:22:45;102274.19;;;-3.69;57.16
43621;BME280;29213;50.770;7.298;2023-01-29T01:25:10;102216.78;;;-4.09;57.35
43621;BME280;29213;50.770;7.298;2023-01-29T01:27:36;102236.59;;;-4.00;57.47
43621;BME280;29213;50.770;7.298;2023-01-29T01:30:15;102240.03;;;-3.98;57.59
43621;BME280;29213;50.770;7.298;2023-01-29T01:32:41;102282.13;;;-3.76;57.22
43621;BME280;29213;50.770;7.298;2023-01-29T01:35:08;102180.91;;;-4.38;56.99
43621;BME280;29213;50.770;7.298;2023-01-29T01:37:34;102288.31;;;-3.80;56.83
43621;BME280;29213;50.770;7.298;2023-01-29T01:40:12;102204.22;;;-4.34;56.48
43621;BME280;29213;50.770;7.298;2023-01-29T01:42:43;102266.88;;;-3.96;56.98
43621;BME280;29213;50.770;7.298;2023-01-29T01:45:51;102286.66;;;-3.85;57.10
43621;BME280;29213;50.770;7.298;2023-01-29T01:48:14;102284.03;;;-3.84;57.13
43621;BME280;29213;50.770;7.298;2023-01-29T01:50:45;102285.81;;;-3.86;56.99
43621;BME280;29213;50.770;7.298;2023-01-29T01:53:17;102204.22;;;-4.34;56.74
43621;BME280;29213;50.770;7.298;2023-01-29T01:55:54;102218.09;;;-4.33;57.03
43621;BME280;29213;50.770;7.298;2023-01-29T01:58:24;102279.88;;;-3.96;56.72
43621;BME280;29213;50.770;7.298;2023-01-29T02:00:51;102286.88;;;-3.98;56.46
43621;BME280;29213;50.770;7.298;2023-01-29T02:03:18;102178.75;;;-4.66;56.68
43621;BME280;29213;50.770;7.298;2023-01-29T02:06:04;102189.09;;;-4.63;56.42
43621;BME280;29213;50.770;7.298;2023-01-29T02:08:53;102263.78;;;-4.17;56.59
43621;BME280;29213;50.770;7.298;2023-01-29T02:11:38;102250.84;;;-4.23;56.29
43621;BME280;29213;50.770;7.298;2023-01-29T02:14:04;102153.00;;;-4.81;56.34
43621;BME280;29213;50.770;7.298;2023-01-29T02:16:29;102246.59;;;-4.27;56.89
43621;BME280;29213;50.770;7.298;2023-01-29T02:18:57;102009.75;;;-5.70;56.93
43621;BME280;29213;50.770;7.298;2023-01-29T02:24:42;102275.84;;;-4.14;56.82
43621;BME280;29213;50.770;7.298;2023-01-29T02:27:20;102273.31;;;-4.16;56.91
43621;BME280;29213;50.770;7.298;2023-01-29T02:30:04;102263.78;;;-4.17;57.23
43621;BME280;29213;50.770;7.298;2023-01-29T02:32:40;102159.94;;;-4.84;57.20
43621;BME280;29213;50.770;7.298;2023-01-29T02:35:26;102268.22;;;-4.23;57.22
43621;BME280;29213;50.770;7.298;2023-01-29T02:40:45;102269.97;;;-4.25;56.81
43621;BME280;29213;50.770;7.298;2023-01-29T02:48:23;102143.13;;;-5.16;56.64
43621;BME280;29213;50.770;7.298;2023-01-29T02:51:00;102268.38;;;-4.34;56.85
43621;BME280;29213;50.770;7.298;2023-01-29T02:53:36;102192.88;;;-4.83;57.03
43621;BME280;29213;50.770;7.298;2023-01-29T02:56:13;102205.00;;;-4.82;56.59
43621;BME280;29213;50.770;7.298;2023-01-29T02:58:45;102241.94;;;-4.61;57.03
43621;BME280;29213;50.770;7.298;2023-01-29T03:01:17;102181.91;;;-5.04;56.79
43621;BME280;29213;50.770;7.298;2023-01-29T03:03:49;102281.50;;;-4.41;56.85
43621;BME280;29213;50.770;7.298;2023-01-29T03:06:19;102271.97;;;-4.40;57.14
43621;BME280;29213;50.770;7.298;2023-01-29T03:08:58;102154.44;;;-5.19;57.18
43621;BME280;29213;50.770;7.298;2023-01-29T03:11:28;102159.63;;;-5.21;56.58
43621;BME280;29213;50.770;7.298;2023-01-29T03:14:01;102267.78;;;-4.52;57.04
43621;BME280;29213;50.770;7.298;2023-01-29T03:21:57;102292.81;;;-4.43;56.50
43621;BME280;29213;50.770;7.298;2023-01-29T03:24:46;102252.47;;;-4.71;57.19
43621;BME280;29213;50.770;7.298;2023-01-29T03:27:36;102207.00;;;-5.00;56.93
43621;BME280;29213;50.770;7.298;2023-01-29T03:30:24;102304.97;;;-4.44;56.87
43621;BME280;29213;50.770;7.298;2023-01-29T03:33:11;102209.69;;;-5.08;56.72
43621;BME280;29213;50.770;7.298;2023-01-29T03:35:43;102320.56;;;-4.44;56.54
43621;BME280;29213;50.770;7.298;2023-01-29T03:38:12;102270.78;;;-4.77;56.63
43621;BME280;29213;50.770;7.298;2023-01-29T03:40:51;102324.88;;;-4.43;56.59
43621;BME280;29213;50.770;7.298;2023-01-29T03:43:38;102293.06;;;-4.60;56.52
43621;BME280;29213;50.770;7.298;2023-01-29T03:46:13;102258.69;;;-4.81;56.32
43621;BME280;29213;50.770;7.298;2023-01-29T03:49:46;102232.88;;;-4.92;56.50
43621;BME280;29213;50.770;7.298;2023-01-29T03:51:55;102256.06;;;-4.78;56.23
43621;BME280;29213;50.770;7.298;2023-01-29T03:54:49;102292.38;;;-4.72;55.92
43621;BME280;29213;50.770;7.298;2023-01-29T03:57:31;102275.38;;;-4.98;56.26
43621;BME280;29213;50.770;7.298;2023-01-29T04:00:09;102299.47;;;-4.83;56.45
43621;BME280;29213;50.770;7.298;2023-01-29T04:02:55;102248.81;;;-5.18;56.71
43621;BME280;29213;50.770;7.298;2023-01-29T04:05:30;102297.84;;;-4.92;56.63
43621;BME280;29213;50.770;7.298;2023-01-29T04:08:03;102284.81;;;-4.90;56.57
43621;BME280;29213;50.770;7.298;2023-01-29T04:10:32;102274.50;;;-4.97;56.61
43621;BME280;29213;50.770;7.298;2023-01-29T04:13:06;102284.88;;;-4.95;57.13
43621;BME280;29213;50.770;7.298;2023-01-29T04:15:38;102192.00;;;-5.45;56.87
43621;BME280;29213;50.770;7.298;2023-01-29T04:18:05;102179.91;;;-5.48;56.73
43621;BME280;29213;50.770;7.298;2023-01-29T04:20:30;102165.38;;;-5.61;56.83
43621;BME280;29213;50.770;7.298;2023-01-29T04:22:56;102077.66;;;-6.05;56.86
43621;BME280;29213;50.770;7.298;2023-01-29T04:25:25;102283.72;;;-4.74;56.91
43621;BME280;29213;50.770;7.298;2023-01-29T04:30:32;102275.00;;;-4.71;57.32
43621;BME280;29213;50.770;7.298;2023-01-29T04:33:07;102279.38;;;-4.72;56.56
43621;BME280;29213;50.770;7.298;2023-01-29T04:38:27;102275.88;;;-4.71;56.81
43621;BME280;29213;50.770;7.298;2023-01-29T04:41:04;102270.69;;;-4.71;56.69
43621;BME280;29213;50.770;7.298;2023-01-29T04:43:56;102272.47;;;-4.73;56.67
43621;BME280;29213;50.770;7.298;2023-01-29T04:49:43;102260.31;;;-4.74;56.36
43621;BME280;29213;50.770;7.298;2023-01-29T04:52:15;102256.91;;;-4.76;56.60
43621;BME280;29213;50.770;7.298;2023-01-29T04:54:59;102208.81;;;-5.08;56.35
43621;BME280;29213;50.770;7.298;2023-01-29T04:58:35;102206.28;;;-5.11;56.21
43621;BME280;29213;50.770;7.298;2023-01-29T05:00:43;102252.06;;;-5.01;56.03
43621;BME280;29213;50.770;7.298;2023-01-29T05:03:11;102049.41;;;-6.30;56.46
43621;BME280;29213;50.770;7.298;2023-01-29T05:05:40;102228.09;;;-5.23;56.55
43621;BME280;29213;50.770;7.298;2023-01-29T05:08:07;102273.69;;;-4.99;56.64
43621;BME280;29213;50.770;7.298;2023-01-29T05:10:34;102233.28;;;-5.22;56.46
43621;BME280;29213;50.770;7.298;2023-01-29T05:13:02;102161.97;;;-5.66;56.10
43621;BME280;29213;50.770;7.298;2023-01-29T05:15:36;102266.75;;;-5.00;56.79
43621;BME280;29213;50.770;7.298;2023-01-29T05:18:03;102260.69;;;-4.99;56.97
43621;BME280;29213;50.770;7.298;2023-01-29T05:20:34;102221.16;;;-5.23;56.88
43621;BME280;29213;50.770;7.298;2023-01-29T05:23:01;102196.22;;;-5.36;56.52
43621;BME280;29213;50.770;7.298;2023-01-29T05:25:28;102259.84;;;-5.01;56.55
43621;BME280;29213;50.770;7.298;2023-01-29T05:27:54;102180.88;;;-5.55;56.53
43621;BME280;29213;50.770;7.298;2023-01-29T05:30:51;102260.78;;;-5.06;56.43
43621;BME280;29213;50.770;7.298;2023-01-29T05:33:19;102113.03;;;-5.99;56.37
43621;BME280;29213;50.770;7.298;2023-01-29T05:35:45;102253.91;;;-5.12;56.78
43621;BME280;29213;50.770;7.298;2023-01-29T05:38:11;102205.78;;;-5.40;56.67
43621;BME280;29213;50.770;7.298;2023-01-29T05:40:37;101897.81;;;-7.50;56.79
43621;BME280;29213;50.770;7.298;2023-01-29T05:43:03;102097.78;;;-6.27;57.33
43621;BME280;29213;50.770;7.298;2023-01-29T05:45:29;102128.59;;;-5.97;57.17
43621;BME280;29213;50.770;7.298;2023-01-29T05:47:58;102232.47;;;-5.28;57.44
43621;BME280;29213;50.770;7.298;2023-01-29T05:50:25;102236.72;;;-5.21;57.59
43621;BME280;29213;50.770;7.298;2023-01-29T05:52:58;102163.66;;;-5.62;57.83
43621;BME280;29213;50.770;7.298;2023-01-29T05:55:25;102158.31;;;-5.50;57.35
43621;BME280;29213;50.770;7.298;2023-01-29T05:57:50;102227.78;;;-5.00;57.42
43621;BME280;29213;50.770;7.298;2023-01-29T06:00:16;102191.63;;;-5.18;57.61
43621;BME280;29213;50.770;7.298;2023-01-29T06:02:42;102213.91;;;-4.99;57.80
43621;BME280;29213;50.770;7.298;2023-01-29T06:05:07;102114.25;;;-5.56;57.75
43621;BME280;29213;50.770;7.298;2023-01-29T06:07:33;102173.50;;;-5.22;57.66
43621;BME280;29213;50.770;7.298;2023-01-29T06:09:58;102116.94;;;-5.62;57.20
43621;BME280;29213;50.770;7.298;2023-01-29T06:12:25;102069.88;;;-6.02;57.02
43621;BME280;29213;50.770;7.298;2023-01-29T06:14:50;102121.28;;;-5.66;56.89
43621;BME280;29213;50.770;7.298;2023-01-29T06:17:16;102232.91;;;-4.97;57.19
43621;BME280;29213;50.770;7.298;2023-01-29T06:19:41;102154.66;;;-5.38;57.08
43621;BME280;29213;50.770;7.298;2023-01-29T06:22:07;102095.41;;;-5.70;57.16
43621;BME280;29213;50.770;7.298;2023-01-29T06:24:32;102137.53;;;-5.48;56.99
43621;BME280;29213;50.770;7.298;2023-01-29T06:26:57;102156.34;;;-5.33;57.09
43621;BME280;29213;50.770;7.298;2023-01-29T06:29:23;102106.47;;;-5.57;57.17
43621;BME280;29213;50.770;7.298;2023-01-29T06:31:48;102066.97;;;-5.80;57.06
43621;BME280;29213;50.770;7.298;2023-01-29T06:34:14;102030.97;;;-6.05;57.10
43621;BME280;29213;50.770;7.298;2023-01-29T06:36:39;102087.59;;;-5.67;57.33
43621;BME280;29213;50.770;7.298;2023-01-29T06:39:06;102229.28;;;-4.85;57.19
43621;BME280;29213;50.770;7.298;2023-01-29T06:41:31;102189.81;;;-5.10;57.35
43621;BME280;29213;50.770;7.298;2023-01-29T06:43:57;102200.13;;;-5.04;57.19
43621;BME280;29213;50.770;7.298;2023-01-29T06:46:22;102193.22;;;-5.08;57.47
43621;BME280;29213;50.770;7.298;2023-01-29T06:48:47;102185.44;;;-5.10;57.59
43621;BME280;29213;50.770;7.298;2023-01-29T06:51:13;102256.75;;;-4.66;57.35
43621;BME280;29213;50.770;7.298;2023-01-29T06:53:38;102264.50;;;-4.63;57.05
43621;BME280;29213;50.770;7.298;2023-01-29T06:56:04;102267.91;;;-4.60;57.34
43621;BME280;29213;50.770;7.298;2023-01-29T06:58:30;102249.00;;;-4.71;56.91
43621;BME280;29213;50.770;7.298;2023-01-29T07:01:05;102110.00;;;-5.62;57.41
43621;BME280;29213;50.770;7.298;2023-01-29T07:03:31;102282.59;;;-4.56;57.70
43621;BME280;29213;50.770;7.298;2023-01-29T07:05:57;102204.53;;;-5.11;57.39
43621;BME280;29213;50.770;7.298;2023-01-29T07:08:22;102220.88;;;-5.01;57.33
43621;BME280;29213;50.770;7.298;2023-01-29T07:10:48;102294.69;;;-4.51;57.18
43621;BME280;29213;50.770;7.298;2023-01-29T07:13:14;102293.88;;;-4.55;57.68
43621;BME280;29213;50.770;7.298;2023-01-29T07:15:40;102275.75;;;-4.61;57.54
43621;BME280;29213;50.770;7.298;2023-01-29T07:18:06;102142.66;;;-5.46;57.37
43621;BME280;29213;50.770;7.298;2023-01-29T07:20:37;102233.59;;;-4.84;57.52
43621;BME280;29213;50.770;7.298;2023-01-29T07:23:03;102265.28;;;-4.58;57.63
43621;BME280;29213;50.770;7.298;2023-01-29T07:25:29;102285.94;;;-4.47;57.44
43621;BME280;29213;50.770;7.298;2023-01-29T07:27:55;102154.44;;;-5.21;57.28
43621;BME280;29213;50.770;7.298;2023-01-29T07:30:21;102270.38;;;-4.50;57.33
43621;BME280;29213;50.770;7.298;2023-01-29T07:32:46;102238.63;;;-4.71;57.50
43621;BME280;29213;50.770;7.298;2023-01-29T07:35:12;102285.91;;;-4.46;57.34
43621;BME280;29213;50.770;7.298;2023-01-29T07:37:37;102269.59;;;-4.56;57.52
43621;BME280;29213;50.770;7.298;2023-01-29T07:40:03;102223.19;;;-4.81;57.51
43621;BME280;29213;50.770;7.298;2023-01-29T07:42:34;102294.47;;;-4.39;57.83
43621;BME280;29213;50.770;7.298;2023-01-29T07:45:00;102213.72;;;-4.88;58.00
43621;BME280;29213;50.770;7.298;2023-01-29T07:47:25;102222.31;;;-4.81;57.84
43621;BME280;29213;50.770;7.298;2023-01-29T07:49:51;102236.91;;;-4.72;58.08
43621;BME280;29213;50.770;7.298;2023-01-29T07:52:16;102244.56;;;-4.63;58.00
43621;BME280;29213;50.770;7.298;2023-01-29T07:54:43;102195.47;;;-4.83;57.81
43621;BME280;29213;50.770;7.298;2023-01-29T07:57:08;102251.97;;;-4.38;58.37
43621;BME280;29213;50.770;7.298;2023-01-29T07:59:33;102210.69;;;-4.58;58.17
43621;BME280;29213;50.770;7.298;2023-01-29T08:01:59;102285.34;;;-4.11;58.41
43621;BME280;29213;50.770;7.298;2023-01-29T08:04:24;102282.69;;;-4.07;58.37
43621;BME280;29213;50.770;7.298;2023-01-29T08:06:49;102261.97;;;-4.13;58.33
43621;BME280;29213;50.770;7.298;2023-01-29T08:09:15;102223.34;;;-4.36;58.18
43621;BME280;29213;50.770;7.298;2023-01-29T08:11:40;102233.72;;;-4.33;58.33
43621;BME280;29213;50.770;7.298;2023-01-29T08:14:06;102236.94;;;-4.20;58.29
43621;BME280;29213;50.770;7.298;2023-01-29T08:16:34;102140.69;;;-4.71;58.20
43621;BME280;29213;50.770;7.298;2023-01-29T08:19:00;102135.56;;;-4.75;58.20
43621;BME280;29213;50.770;7.298;2023-01-29T08:21:26;102213.13;;;-4.47;58.64
43621;BME280;29213;50.770;7.298;2023-01-29T08:23:51;102192.63;;;-4.68;58.77
43621;BME280;29213;50.770;7.298;2023-01-29T08:26:17;102273.13;;;-4.06;59.04
43621;BME280;29213;50.770;7.298;2023-01-29T08:28:42;102265.25;;;-4.02;59.12
43621;BME280;29213;50.770;7.298;2023-01-29T08:31:18;102272.06;;;-3.94;58.99
43621;BME280;29213;50.770;7.298;2023-01-29T08:33:45;102280.41;;;-3.77;58.94
43621;BME280;29213;50.770;7.298;2023-01-29T08:36:10;102183.25;;;-4.24;58.87
43621;BME280;29213;50.770;7.298;2023-01-29T08:38:36;102196.19;;;-4.21;58.63
43621;BME280;29213;50.770;7.298;2023-01-29T08:41:01;102233.84;;;-3.92;58.48
43621;BME280;29213;50.770;7.298;2023-01-29T08:43:27;102295.63;;;-3.53;58.56
43621;BME280;29213;50.770;7.298;2023-01-29T08:45:52;102286.81;;;-3.48;58.53
43621;BME280;29213;50.770;7.298;2023-01-29T08:48:17;102259.31;;;-3.61;58.69
43621;BME280;29213;50.770;7.298;2023-01-29T08:50:43;102275.41;;;-3.40;58.55
43621;BME280;29213;50.770;7.298;2023-01-29T08:53:08;102180.97;;;-3.96;58.83
43621;BME280;29213;50.770;7.298;2023-01-29T08:55:36;102263.19;;;-3.38;58.77
43621;BME280;29213;50.770;7.298;2023-01-29T08:58:03;102211.75;;;-3.71;58.47
43621;BME280;29213;50.770;7.298;2023-01-29T09:00:29;102199.72;;;-3.78;58.35
43621;BME280;29213;50.770;7.298;2023-01-29T09:02:54;102212.53;;;-3.66;58.59
43621;BME280;29213;50.770;7.298;2023-01-29T09:05:19;102167.75;;;-3.85;58.72
43621;BME280;29213;50.770;7.298;2023-01-29T09:07:45;102209.72;;;-3.56;58.46
43621;BME280;29213;50.770;7.298;2023-01-29T09:10:10;102260.97;;;-3.14;58.48
43621;BME280;29213;50.770;7.298;2023-01-29T09:12:36;102267.03;;;-3.12;58.44
43621;BME280;29213;50.770;7.298;2023-01-29T09:15:02;102250.63;;;-3.19;58.09
43621;BME280;29213;50.770;7.298;2023-01-29T09:17:28;102213.69;;;-3.38;58.63
43621;BME280;29213;50.770;7.298;2023-01-29T09:19:53;102255.38;;;-2.97;58.55
43621;BME280;29213;50.770;7.298;2023-01-29T09:22:19;102203.09;;;-3.30;58.65
43621;BME280;29213;50.770;7.298;2023-01-29T09:24:50;102256.03;;;-2.87;58.62
43621;BME280;29213;50.770;7.298;2023-01-29T09:27:21;102271.50;;;-2.80;58.52
43621;BME280;29213;50.770;7.298;2023-01-29T09:29:52;102273.91;;;-2.70;58.42
43621;BME280;29213;50.770;7.298;2023-01-29T09:32:23;102283.25;;;-2.60;58.77
43621;BME280;29213;50.770;7.298;2023-01-29T09:37:25;102261.16;;;-2.45;58.03
43621;BME280;29213;50.770;7.298;2023-01-29T09:39:56;102250.63;;;-2.42;58.19
43621;BME280;29213;50.770;7.298;2023-01-29T09:42:36;102245.06;;;-2.28;62.04
43621;BME280;29213;50.770;7.298;2023-01-29T09:45:18;102241.94;;;-2.07;61.07
43621;BME280;29213;50.770;7.298;2023-01-29T09:47:55;102241.47;;;-1.89;61.27
43621;BME280;29213;50.770;7.298;2023-01-29T09:50:51;102237.72;;;-1.78;60.07
43621;BME280;29213;50.770;7.298;2023-01-29T09:53:52;102226.94;;;-1.67;58.45
43621;BME280;29213;50.770;7.298;2023-01-29T09:56:26;102214.56;;;-1.61;57.98
43621;BME280;29213;50.770;7.298;2023-01-29T09:58:59;102222.22;;;-1.54;57.40
43621;BME280;29213;50.770;7.298;2023-01-29T10:02:14;102217.69;;;-1.48;57.56
43621;BME280;29213;50.770;7.298;2023-01-29T10:13:28;102201.13;;;-1.18;57.60
43621;BME280;29213;50.770;7.298;2023-01-29T10:16:11;102190.53;;;-1.13;57.06
43621;BME280;29213;50.770;7.298;2023-01-29T10:24:25;102191.59;;;-0.92;56.87
43621;BME280;29213;50.770;7.298;2023-01-29T10:26:57;102194.94;;;-0.87;57.18
43621;BME280;29213;50.770;7.298;2023-01-29T10:29:24;101980.91;;;-2.09;56.88
43621;BME280;29213;50.770;7.298;2023-01-29T10:31:55;102182.41;;;-0.77;56.96
43621;BME280;29213;50.770;7.298;2023-01-29T10:34:40;102189.69;;;-0.33;71.98
43621;BME280;29213;50.770;7.298;2023-01-29T10:37:22;102183.81;;;1.47;59.29
43621;BME280;29213;50.770;7.298;2023-01-29T10:39:54;102180.56;;;0.97;54.45
43621;BME280;29213;50.770;7.298;2023-01-29T10:42:42;102173.94;;;0.18;53.28
43621;BME280;29213;50.770;7.298;2023-01-29T10:45:33;102045.13;;;-0.92;54.84
43621;BME280;29213;50.770;7.298;2023-01-29T11:00:24;102154.31;;;0.75;55.24
43621;BME280;29213;50.770;7.298;2023-01-29T11:02:51;102149.81;;;0.56;53.52
43621;BME280;29213;50.770;7.298;2023-01-29T11:05:34;102151.31;;;0.62;53.54
43621;BME280;29213;50.770;7.298;2023-01-29T11:08:06;102139.28;;;0.58;52.75
43621;BME280;29213;50.770;7.298;2023-01-29T11:10:40;102142.66;;;0.37;52.14
43621;BME280;29213;50.770;7.298;2023-01-29T11:13:13;102129.41;;;0.40;52.53
43621;BME280;29213;50.770;7.298;2023-01-29T11:15:40;102133.59;;;0.46;52.99
43621;BME280;29213;50.770;7.298;2023-01-29T11:18:13;102119.50;;;0.49;52.37
43621;BME280;29213;50.770;7.298;2023-01-29T11:21:00;102112.06;;;0.60;52.44
43621;BME280;29213;50.770;7.298;2023-01-29T11:23:29;102109.97;;;0.68;52.56
43621;BME280;29213;50.770;7.298;2023-01-29T11:25:57;102104.31;;;0.79;51.92
43621;BME280;29213;50.770;7.298;2023-01-29T11:28:42;102098.88;;;0.84;51.19
43621;BME280;29213;50.770;7.298;2023-01-29T11:31:25;102098.88;;;0.84;51.24
43621;BME280;29213;50.770;7.298;2023-01-29T11:34:15;102094.16;;;0.92;51.25
43621;BME280;29213;50.770;7.298;2023-01-29T11:36:41;102087.72;;;1.01;51.13
43621;BME280;29213;50.770;7.298;2023-01-29T11:39:17;102090.13;;;1.06;51.04
43621;BME280;29213;50.770;7.298;2023-01-29T11:44:34;102075.09;;;1.10;50.69
43621;BME280;29213;50.770;7.298;2023-01-29T11:49:53;102066.44;;;1.28;50.61
43621;BME280;29213;50.770;7.298;2023-01-29T11:52:38;102056.59;;;1.33;50.74
43621;BME280;29213;50.770;7.298;2023-01-29T11:55:31;102053.84;;;1.37;50.12
43621;BME280;29213;50.770;7.298;2023-01-29T11:58:15;102048.25;;;1.44;50.74
43621;BME280;29213;50.770;7.298;2023-01-29T12:00:52;102044.44;;;1.52;50.79
43621;BME280;29213;50.770;7.298;2023-01-29T12:03:25;102037.31;;;1.54;49.50
43621;BME280;29213;50.770;7.298;2023-01-29T12:06:20;102035.50;;;1.56;49.82
43621;BME280;29213;50.770;7.298;2023-01-29T12:08:59;102026.56;;;1.60;50.07
43621;BME280;29213;50.770;7.298;2023-01-29T12:11:34;102022.81;;;1.66;50.04
43621;BME280;29213;50.770;7.298;2023-01-29T12:14:02;102012.88;;;1.72;49.78
43621;BME280;29213;50.770;7.298;2023-01-29T12:16:35;102012.59;;;1.79;49.59
43621;BME280;29213;50.770;7.298;2023-01-29T12:19:38;102007.16;;;1.82;49.42
43621;BME280;29213;50.770;7.298;2023-01-29T12:22:20;102010.38;;;1.88;49.66
43621;BME280;29213;50.770;7.298;2023-01-29T12:24:54;102012.88;;;1.92;49.03
43621;BME280;29213;50.770;7.298;2023-01-29T12:30:11;102003.00;;;1.97;50.20
43621;BME280;29213;50.770;7.298;2023-01-29T12:35:47;101992.69;;;2.11;49.58
43621;BME280;29213;50.770;7.298;2023-01-29T12:38:22;101988.16;;;2.15;49.57
43621;BME280;29213;50.770;7.298;2023-01-29T12:40:57;101975.63;;;2.20;49.31
43621;BME280;29213;50.770;7.298;2023-01-29T12:43:49;101976.44;;;2.22;49.53
43621;BME280;29213;50.770;7.298;2023-01-29T12:46:26;101969.31;;;2.24;48.90
43621;BME280;29213;50.770;7.298;2023-01-29T12:49:02;101956.84;;;2.28;49.41
43621;BME280;29213;50.770;7.298;2023-01-29T12:51:34;101958.41;;;2.32;48.59
43621;BME280;29213;50.770;7.298;2023-01-29T12:54:20;101949.53;;;2.35;48.68
43621;BME280;29213;50.770;7.298;2023-01-29T12:56:50;101933.56;;;2.38;48.56
43621;BME280;29213;50.770;7.298;2023-01-29T12:59:29;101928.25;;;2.39;48.28
43621;BME280;29213;50.770;7.298;2023-01-29T13:02:05;101929.94;;;2.40;48.51
43621;BME280;29213;50.770;7.298;2023-01-29T13:04:41;101928.03;;;2.44;48.42
43621;BME280;29213;50.770;7.298;2023-01-29T13:07:16;101920.91;;;2.46;48.54
43621;BME280;29213;50.770;7.298;2023-01-29T13:09:48;101921.69;;;2.48;48.08
43621;BME280;29213;50.770;7.298;2023-01-29T13:12:17;101917.28;;;2.49;47.32
43621;BME280;29213;50.770;7.298;2023-01-29T13:14:58;101911.69;;;2.55;47.77
43621;BME280;29213;50.770;7.298;2023-01-29T13:17:48;101899.88;;;2.46;46.87
43621;BME280;29213;50.770;7.298;2023-01-29T13:20:29;101905.13;;;2.46;47.72
43621;BME280;29213;50.770;7.298;2023-01-29T13:23:33;101905.50;;;2.56;47.66
43621;BME280;29213;50.770;7.298;2023-01-29T13:25:57;101758.38;;;1.84;47.48
43621;BME280;29213;50.770;7.298;2023-01-29T13:28:24;101676.88;;;1.32;46.51
43621;BME280;29213;50.770;7.298;2023-01-29T13:31:11;101880.22;;;2.53;47.04
43621;BME280;29213;50.770;7.298;2023-01-29T13:33:41;101832.75;;;2.39;47.74
43621;BME280;29213;50.770;7.298;2023-01-29T13:36:14;101844.78;;;2.61;47.19
43621;BME280;29213;50.770;7.298;2023-01-29T13:38:41;101886.13;;;3.08;47.32
43621;BME280;29213;50.770;7.298;2023-01-29T13:41:09;101879.78;;;3.13;47.18
43621;BME280;29213;50.770;7.298;2023-01-29T13:43:41;101797.03;;;2.35;46.39
43621;BME280;29213;50.770;7.298;2023-01-29T13:46:15;101764.41;;;2.04;46.10
43621;BME280;29213;50.770;7.298;2023-01-29T13:48:48;101858.09;;;2.58;46.79
43621;BME280;29213;50.770;7.298;2023-01-29T13:51:19;101809.69;;;2.44;47.02
43621;BME280;29213;50.770;7.298;2023-01-29T13:54:12;101718.28;;;2.15;46.75
43621;BME280;29213;50.770;7.298;2023-01-29T13:56:44;101845.78;;;2.92;46.41
43621;BME280;29213;50.770;7.298;2023-01-29T13:59:47;101780.59;;;2.47;46.28
43621;BME280;29213;50.770;7.298;2023-01-29T14:04:47;101741.34;;;2.26;46.71
43621;BME280;29213;50.770;7.298;2023-01-29T14:10:19;101718.97;;;2.01;45.59
43621;BME280;29213;50.770;7.298;2023-01-29T14:12:46;101837.75;;;2.77;46.75
43621;BME280;29213;50.770;7.298;2023-01-29T14:20:37;101828.16;;;3.10;45.99
43621;BME280;29213;50.770;7.298;2023-01-29T14:23:03;101730.38;;;2.52;45.67
43621;BME280;29213;50.770;7.298;2023-01-29T14:25:32;101725.44;;;2.30;45.03
43621;BME280;29213;50.770;7.298;2023-01-29T14:28:00;101806.72;;;2.84;45.91
43621;BME280;29213;50.770;7.298;2023-01-29T14:30:29;101736.81;;;2.46;46.25
43621;BME280;29213;50.770;7.298;2023-01-29T14:32:56;101684.78;;;2.35;46.16
43621;BME280;29213;50.770;7.298;2023-01-29T14:35:24;101752.22;;;2.70;44.43